Map

Track Data

SID SEASON NUMBER BASIN SUBBASIN NAME ISO_TIME NATURE LAT LON WMO_WIND WMO_PRES WMO_AGENCY TRACK_TYPE DIST2LAND LANDFALL IFLAG USA_AGENCY USA_ATCF_ID USA_LAT USA_LON USA_RECORD USA_STATUS USA_WIND USA_PRES USA_SSHS USA_R34_NE USA_R34_SE USA_R34_SW USA_R34_NW USA_R50_NE USA_R50_SE USA_R50_SW USA_R50_NW USA_R64_NE USA_R64_SE USA_R64_SW USA_R64_NW USA_POCI USA_ROCI USA_RMW USA_EYE TOKYO_LAT TOKYO_LON TOKYO_GRADE TOKYO_WIND TOKYO_PRES TOKYO_R50_DIR TOKYO_R50_LONG TOKYO_R50_SHORT TOKYO_R30_DIR TOKYO_R30_LONG TOKYO_R30_SHORT TOKYO_LAND CMA_LAT CMA_LON CMA_CAT CMA_WIND CMA_PRES HKO_LAT HKO_LON HKO_CAT HKO_WIND HKO_PRES NEWDELHI_LAT NEWDELHI_LON NEWDELHI_GRADE NEWDELHI_WIND NEWDELHI_PRES NEWDELHI_CI NEWDELHI_DP NEWDELHI_POCI REUNION_LAT REUNION_LON REUNION_TYPE REUNION_WIND REUNION_PRES REUNION_TNUM REUNION_CI REUNION_RMW REUNION_R34_NE REUNION_R34_SE REUNION_R34_SW REUNION_R34_NW REUNION_R50_NE REUNION_R50_SE REUNION_R50_SW REUNION_R50_NW REUNION_R64_NE REUNION_R64_SE REUNION_R64_SW REUNION_R64_NW BOM_LAT BOM_LON BOM_TYPE BOM_WIND BOM_PRES BOM_TNUM BOM_CI BOM_RMW BOM_R34_NE BOM_R34_SE BOM_R34_SW BOM_R34_NW BOM_R50_NE BOM_R50_SE BOM_R50_SW BOM_R50_NW BOM_R64_NE BOM_R64_SE BOM_R64_SW BOM_R64_NW BOM_ROCI BOM_POCI BOM_EYE BOM_POS_METHOD BOM_PRES_METHOD NADI_LAT NADI_LON NADI_CAT NADI_WIND NADI_PRES WELLINGTON_LAT WELLINGTON_LON WELLINGTON_WIND WELLINGTON_PRES DS824_LAT DS824_LON DS824_STAGE DS824_WIND DS824_PRES TD9636_LAT TD9636_LON TD9636_STAGE TD9636_WIND TD9636_PRES TD9635_LAT TD9635_LON TD9635_WIND TD9635_PRES TD9635_ROCI NEUMANN_LAT NEUMANN_LON NEUMANN_CLASS NEUMANN_WIND NEUMANN_PRES MLC_LAT MLC_LON MLC_CLASS MLC_WIND MLC_PRES USA_GUST BOM_GUST BOM_GUST_PER REUNION_GUST REUNION_GUST_PER USA_SEAHGT USA_SEARAD_NE USA_SEARAD_SE USA_SEARAD_SW USA_SEARAD_NW STORM_SPEED STORM_DIR
1944195N20291 1944 35 NA NA NOT_NAMED 1944-07-13 06:00:00 TS 19.6000 -68.6000 30 hurdat_atl main 77 76 O_____________ hurdat_atl AL011944 19.6000 -68.6000 TD 30 -1 14 324
1944195N20291 1944 35 NA NA NOT_NAMED 1944-07-13 09:00:00 TS 20.1802 -69.0467 main 105 102 P_____________ AL011944 20.1802 -69.0467 TD 30 -1 14 322
1944195N20291 1944 35 NA NA NOT_NAMED 1944-07-13 12:00:00 TS 20.7000 -69.5000 30 hurdat_atl main 133 133 O_____________ hurdat_atl AL011944 20.7000 -69.5000 TD 30 -1 13 318
1944195N20291 1944 35 NA NA NOT_NAMED 1944-07-13 15:00:00 TS 21.1224 -69.9579 main 158 158 P_____________ AL011944 21.1224 -69.9579 TD 30 -1 12 314
1944195N20291 1944 35 NA NA NOT_NAMED 1944-07-13 18:00:00 TS 21.5000 -70.4000 30 hurdat_atl main 191 191 O_____________ hurdat_atl AL011944 21.5000 -70.4000 TD 30 -1 11 315
1944195N20291 1944 35 NA NA NOT_NAMED 1944-07-13 21:00:00 TS 21.8998 -70.8078 main 234 222 P_____________ AL011944 21.8998 -70.8078 TD 32 -1 11 317
1944195N20291 1944 35 NA NA NOT_NAMED 1944-07-14 00:00:00 TS 22.3000 -71.2000 35 hurdat_atl main 222 212 O_____________ hurdat_atl AL011944 22.3000 -71.2000 TS 35 0 11 317
1944195N20291 1944 35 NA NA NOT_NAMED 1944-07-14 03:00:00 TS 22.6924 -71.6003 main 221 217 P_____________ AL011944 22.6924 -71.6003 TS 35 0 11 317
1944195N20291 1944 35 NA NA NOT_NAMED 1944-07-14 06:00:00 TS 23.1000 -72.0000 35 hurdat_atl main 236 236 O_____________ hurdat_atl AL011944 23.1000 -72.0000 TS 35 0 11 318
1944195N20291 1944 35 NA NA NOT_NAMED 1944-07-14 09:00:00 TS 23.5275 -72.4078 main 264 264 P_____________ AL011944 23.5275 -72.4078 TS 35 0 12 321
1944195N20291 1944 35 NA NA NOT_NAMED 1944-07-14 12:00:00 TS 24.0000 -72.8000 35 hurdat_atl main 313 313 O_____________ hurdat_atl AL011944 24.0000 -72.8000 TS 35 0 12 326
1944195N20291 1944 35 NA NA NOT_NAMED 1944-07-14 15:00:00 TS 24.5349 -73.1652 main 368 368 P_____________ AL011944 24.5349 -73.1652 TS 37 0 13 330
1944195N20291 1944 35 NA NA NOT_NAMED 1944-07-14 18:00:00 TS 25.1000 -73.5000 40 hurdat_atl main 428 411 O_____________ hurdat_atl AL011944 25.1000 -73.5000 TS 40 0 13 332
1944195N20291 1944 35 NA NA NOT_NAMED 1944-07-14 21:00:00 TS 25.6424 -73.8153 main 411 402 P_____________ AL011944 25.6424 -73.8153 TS 42 0 12 334
1944195N20291 1944 35 NA NA NOT_NAMED 1944-07-15 00:00:00 TS 26.2000 -74.1000 45 hurdat_atl main 407 401 O_____________ hurdat_atl AL011944 26.2000 -74.1000 TS 45 0 13 337
1944195N20291 1944 35 NA NA NOT_NAMED 1944-07-15 03:00:00 TS 26.7999 -74.3652 main 406 406 P_____________ AL011944 26.7999 -74.3652 TS 47 0 13 340
1944195N20291 1944 35 NA NA NOT_NAMED 1944-07-15 06:00:00 TS 27.4000 -74.6000 50 hurdat_atl main 425 424 O_____________ hurdat_atl AL011944 27.4000 -74.6000 TS 50 0 12 341
1944195N20291 1944 35 NA NA NOT_NAMED 1944-07-15 09:00:00 TS 27.9725 -74.8152 main 453 453 P_____________ AL011944 27.9725 -74.8152 TS 52 0 12 342
1944195N20291 1944 35 NA NA NOT_NAMED 1944-07-15 12:00:00 TS 28.5000 -75.0000 55 hurdat_atl main 482 482 O_____________ hurdat_atl AL011944 28.5000 -75.0000 TS 55 0 11 343
1944195N20291 1944 35 NA NA NOT_NAMED 1944-07-15 15:00:00 TS 28.9725 -75.1652 main 516 511 P_____________ AL011944 28.9725 -75.1652 TS 55 0 9 344
1944195N20291 1944 35 NA NA NOT_NAMED 1944-07-15 18:00:00 TS 29.4000 -75.3000 55 hurdat_atl main 515 510 O_____________ hurdat_atl AL011944 29.4000 -75.3000 TS 55 0 9 346
1944195N20291 1944 35 NA NA NOT_NAMED 1944-07-15 21:00:00 TS 29.8150 -75.4151 main 515 474 P_____________ AL011944 29.8150 -75.4151 TS 57 0 8 348
1944195N20291 1944 35 NA NA NOT_NAMED 1944-07-16 00:00:00 TS 30.2000 -75.5000 60 hurdat_atl main 474 431 O_____________ hurdat_atl AL011944 30.2000 -75.5000 TS 60 0 8 350
1944195N20291 1944 35 NA NA NOT_NAMED 1944-07-16 03:00:00 TS 30.5725 -75.5725 main 431 403 P_____________ AL011944 30.5725 -75.5725 TS 62 0 7 353
1944195N20291 1944 35 NA NA NOT_NAMED 1944-07-16 06:00:00 TS 30.9000 -75.6000 65 hurdat_atl main 403 375 O_____________ hurdat_atl AL011944 30.9000 -75.6000 HU 65 1 6 359
1944195N20291 1944 35 NA NA NOT_NAMED 1944-07-16 09:00:00 TS 31.1725 -75.5800 main 375 363 P_____________ AL011944 31.1725 -75.5800 HU 65 1 5 10
1944195N20291 1944 35 NA NA NOT_NAMED 1944-07-16 12:00:00 TS 31.4000 -75.5000 65 hurdat_atl main 363 353 O_____________ hurdat_atl AL011944 31.4000 -75.5000 HU 65 1 5 22
1944195N20291 1944 35 NA NA NOT_NAMED 1944-07-16 15:00:00 TS 31.6075 -75.3725 main 353 345 P_____________ AL011944 31.6075 -75.3725 HU 65 1 5 33
1944195N20291 1944 35 NA NA NOT_NAMED 1944-07-16 18:00:00 TS 31.8000 -75.2000 65 hurdat_atl main 345 327 O_____________ hurdat_atl AL011944 31.8000 -75.2000 HU 65 1 5 37
1944195N20291 1944 35 NA NA NOT_NAMED 1944-07-16 21:00:00 TS 32.0075 -75.0150 main 331 320 P_____________ AL011944 32.0075 -75.0150 HU 67 1 5 40
1944195N20291 1944 35 NA NA NOT_NAMED 1944-07-17 00:00:00 TS 32.2000 -74.8000 70 hurdat_atl main 320 315 O_____________ hurdat_atl AL011944 32.2000 -74.8000 HU 70 1 5 46
1944195N20291 1944 35 NA NA NOT_NAMED 1944-07-17 03:00:00 TS 32.3573 -74.5798 main 310 310 P_____________ AL011944 32.3573 -74.5798 HU 70 1 5 55
1944195N20291 1944 35 NA NA NOT_NAMED 1944-07-17 06:00:00 TS 32.5000 -74.3000 70 hurdat_atl main 318 316 O_____________ hurdat_atl AL011944 32.5000 -74.3000 HU 70 1 6 62
1944195N20291 1944 35 NA NA NOT_NAMED 1944-07-17 09:00:00 TS 32.6500 -73.9299 main 335 327 P_____________ AL011944 32.6500 -73.9299 HU 70 1 7 66
1944195N20291 1944 35 NA NA NOT_NAMED 1944-07-17 12:00:00 TS 32.8000 -73.5000 70 hurdat_atl main 348 347 O_____________ hurdat_atl AL011944 32.8000 -73.5000 HU 70 1 8 67
1944195N20291 1944 35 NA NA NOT_NAMED 1944-07-17 15:00:00 TS 32.9573 -73.0650 main 362 362 P_____________ AL011944 32.9573 -73.0650 HU 70 1 8 68
1944195N20291 1944 35 NA NA NOT_NAMED 1944-07-17 18:00:00 TS 33.1000 -72.6000 70 hurdat_atl main 395 395 O_____________ hurdat_atl AL011944 33.1000 -72.6000 HU 70 1 8 73
1944195N20291 1944 35 NA NA NOT_NAMED 1944-07-17 21:00:00 TS 33.1999 -72.1072 main 424 424 P_____________ AL011944 33.1999 -72.1072 HU 67 1 9 77
1944195N20291 1944 35 NA NA NOT_NAMED 1944-07-18 00:00:00 TS 33.3000 -71.6000 65 hurdat_atl main 452 452 O_____________ hurdat_atl AL011944 33.3000 -71.6000 HU 65 1 9 74
1944195N20291 1944 35 NA NA NOT_NAMED 1944-07-18 03:00:00 TS 33.4347 -71.1073 main 482 476 P_____________ AL011944 33.4347 -71.1073 HU 65 1 9 70
1944195N20291 1944 35 NA NA NOT_NAMED 1944-07-18 06:00:00 TS 33.6000 -70.6000 65 hurdat_atl main 509 509 O_____________ hurdat_atl AL011944 33.6000 -70.6000 HU 65 1 9 70
1944195N20291 1944 35 NA NA NOT_NAMED 1944-07-18 09:00:00 TS 33.7469 -70.0861 main 544 540 P_____________ AL011944 33.7469 -70.0861 HU 65 1 10 66
1944195N20291 1944 35 NA NA NOT_NAMED 1944-07-18 12:00:00 TS 34.0000 -69.5000 65 hurdat_atl main 581 581 O_____________ hurdat_atl AL011944 34.0000 -69.5000 HU 65 1 12 57
1944195N20291 1944 35 NA NA NOT_NAMED 1944-07-18 15:00:00 TS 34.4159 -68.8525 main 618 618 P_____________ AL011944 34.4159 -68.8525 HU 62 0 16 51
1944195N20291 1944 35 NA NA NOT_NAMED 1944-07-18 18:00:00 TS 35.0000 -68.0000 60 hurdat_atl main 683 683 O_____________ hurdat_atl AL011944 35.0000 -68.0000 TS 60 0 21 52
1944195N20291 1944 35 NA NA NOT_NAMED 1944-07-18 21:00:00 TS 35.6963 -66.8829 main 719 691 P_____________ AL011944 35.6963 -66.8829 TS 60 0 25 54
1944195N20291 1944 35 NA NA NOT_NAMED 1944-07-19 00:00:00 ET 36.5000 -65.5000 60 hurdat_atl main 696 692 O_____________ hurdat_atl AL011944 36.5000 -65.5000 EX 60 -4 29 56
1944195N20291 1944 35 NA NA NOT_NAMED 1944-07-19 03:00:00 ET 37.3104 -63.9575 main 698 648 P_____________ AL011944 37.3104 -63.9575 EX 60 -4 31 57
1944195N20291 1944 35 NA NA NOT_NAMED 1944-07-19 06:00:00 ET 38.2000 -62.2000 60 hurdat_atl main 644 629 O_____________ hurdat_atl AL011944 38.2000 -62.2000 EX 60 -4 34 57
1944195N20291 1944 35 NA NA NOT_NAMED 1944-07-19 09:00:00 ET 39.1761 -60.2646 main 633 608 P_____________ AL011944 39.1761 -60.2646 EX 60 -4 37 57
1944195N20291 1944 35 NA NA NOT_NAMED 1944-07-19 12:00:00 ET 40.2000 -58.2000 60 hurdat_atl main 603 591 O_____________ hurdat_atl AL011944 40.2000 -58.2000 EX 60 -4 38 58
1944195N20291 1944 35 NA NA NOT_NAMED 1944-07-19 15:00:00 ET 41.1971 -56.1093 main 599 501 P_____________ AL011944 41.1971 -56.1093 EX 55 -4 37 58
1944195N20291 1944 35 NA NA NOT_NAMED 1944-07-19 18:00:00 ET 42.2000 -54.0000 50 hurdat_atl main 490 389 O_____________ hurdat_atl AL011944 42.2000 -54.0000 EX 50 -4 37 57
1944195N20291 1944 35 NA NA NOT_NAMED 1944-07-19 21:00:00 ET 43.2070 -51.9089 main 391 365 P_____________ AL011944 43.2070 -51.9089 EX 47 -4 36 57
1944195N20291 1944 35 NA NA NOT_NAMED 1944-07-20 00:00:00 ET 44.2000 -49.8000 45 hurdat_atl main 375 O_____________ hurdat_atl AL011944 44.2000 -49.8000 EX 45 -4 36 57

About IBTrACS Database

This database is a web-friendly format of International Best Track Archive for Climate Stewardship (IBTrACS), a global best track data archive curated by NOAA dating back to 1842.

Updated: 2021-12-06